FNBG

Details ICAO FNBG (BUG)
Name BENGUELA
Region Angola
Timezone Africa/Luanda (UTC+1.0)
Plans Departing 8
Arriving 10
Stats Elevation 118 ft / 36 m (AMSL)
Location -12.609023° 13.403712°
Runways 1
Magnetic Variation 5.068° W
Sunrise 2018-05-26 05:21:00 UTC / 2018-05-26 06:21:00 Local
Sunset 2018-05-26 16:48:43 UTC / 2018-05-26 17:48:43 Local
Advertisement - Login to hide

Runways

ID Width Length Bearing (true) Bearing (mag) Surface Threshold Offset Overrun Length
14 100 ft / 30 m 5,263 ft / 1,604 m 130.28° 135.35° Asphalt 0 ft / 0 m 328 ft / 100 m
32 100 ft / 30 m 5,263 ft / 1,604 m 310.28° 315.35° Asphalt 0 ft / 0 m 185 ft / 56 m

Map

Weather


0- 5 10 15 20 25 30 35+ Temperature / ° C

Clouds and Precipitation
Forecast for 2018-05-26 12:00 UTC. Updated 3 hours ago

Ground ~20,000 ft ~40,000 ft Winds

METAR

FNBG 261400Z 28011KT 9999 FEW015 27/21 Q1010

TAF

Not found

Frequencies

Tower 118.70 MHz AFIS
Warning: Do not use this data for real-world aviation or navigation. No guarantee of current accuracy is given.